sensor_id;sensor_type;location;lat;lon;timestamp;temperature;humidity
42099;DHT22;27758;55.900;8.516;2022-10-17T00:02:03;6.60;99.90
42099;DHT22;27758;55.900;8.516;2022-10-17T00:04:29;6.60;99.90
42099;DHT22;27758;55.900;8.516;2022-10-17T00:06:55;6.70;99.90
42099;DHT22;27758;55.900;8.516;2022-10-17T00:09:20;6.70;99.90
42099;DHT22;27758;55.900;8.516;2022-10-17T00:11:46;6.70;99.90
42099;DHT22;27758;55.900;8.516;2022-10-17T00:14:12;6.70;99.90
42099;DHT22;27758;55.900;8.516;2022-10-17T00:16:38;6.70;99.90
42099;DHT22;27758;55.900;8.516;2022-10-17T00:19:05;6.60;99.90
42099;DHT22;27758;55.900;8.516;2022-10-17T00:21:31;6.60;99.90
42099;DHT22;27758;55.900;8.516;2022-10-17T00:23:58;6.60;99.90
42099;DHT22;27758;55.900;8.516;2022-10-17T00:26:24;6.80;99.90
42099;DHT22;27758;55.900;8.516;2022-10-17T00:28:51;6.80;99.90
42099;DHT22;27758;55.900;8.516;2022-10-17T00:31:18;6.70;99.90
42099;DHT22;27758;55.900;8.516;2022-10-17T00:33:45;6.70;99.90
42099;DHT22;27758;55.900;8.516;2022-10-17T00:36:18;6.70;99.90
42099;DHT22;27758;55.900;8.516;2022-10-17T00:38:46;6.70;99.90
42099;DHT22;27758;55.900;8.516;2022-10-17T00:41:16;6.70;99.90
42099;DHT22;27758;55.900;8.516;2022-10-17T00:46:15;6.90;99.90
42099;DHT22;27758;55.900;8.516;2022-10-17T00:48:41;6.90;99.90
42099;DHT22;27758;55.900;8.516;2022-10-17T00:51:07;7.00;99.90
42099;DHT22;27758;55.900;8.516;2022-10-17T00:53:32;7.10;99.90
42099;DHT22;27758;55.900;8.516;2022-10-17T00:56:00;7.10;99.90
42099;DHT22;27758;55.900;8.516;2022-10-17T00:58:26;7.00;99.90
42099;DHT22;27758;55.900;8.516;2022-10-17T01:00:52;6.90;99.90
42099;DHT22;27758;55.900;8.516;2022-10-17T01:03:18;6.80;99.90
42099;DHT22;27758;55.900;8.516;2022-10-17T01:05:45;6.80;99.90
42099;DHT22;27758;55.900;8.516;2022-10-17T01:08:12;6.70;99.90
42099;DHT22;27758;55.900;8.516;2022-10-17T01:13:29;6.70;99.90
42099;DHT22;27758;55.900;8.516;2022-10-17T01:16:31;6.70;99.90
42099;DHT22;27758;55.900;8.516;2022-10-17T01:22:09;6.90;99.90
42099;DHT22;27758;55.900;8.516;2022-10-17T01:30:25;6.70;99.90
42099;DHT22;27758;55.900;8.516;2022-10-17T01:32:57;6.70;99.90
42099;DHT22;27758;55.900;8.516;2022-10-17T01:35:47;6.70;99.90
42099;DHT22;27758;55.900;8.516;2022-10-17T01:38:29;6.70;99.90
42099;DHT22;27758;55.900;8.516;2022-10-17T01:41:33;6.80;99.90
42099;DHT22;27758;55.900;8.516;2022-10-17T01:44:08;6.70;99.90
42099;DHT22;27758;55.900;8.516;2022-10-17T01:46:38;6.70;99.90
42099;DHT22;27758;55.900;8.516;2022-10-17T01:49:06;6.80;99.90
42099;DHT22;27758;55.900;8.516;2022-10-17T01:51:44;6.90;99.90
42099;DHT22;27758;55.900;8.516;2022-10-17T01:54:24;6.80;99.90
42099;DHT22;27758;55.900;8.516;2022-10-17T01:56:58;6.80;99.90
42099;DHT22;27758;55.900;8.516;2022-10-17T01:59:29;6.80;99.90
42099;DHT22;27758;55.900;8.516;2022-10-17T02:01:57;6.70;99.90
42099;DHT22;27758;55.900;8.516;2022-10-17T02:04:24;6.80;99.90
42099;DHT22;27758;55.900;8.516;2022-10-17T02:06:50;6.80;99.90
42099;DHT22;27758;55.900;8.516;2022-10-17T02:09:22;7.00;99.90
42099;DHT22;27758;55.900;8.516;2022-10-17T02:17:41;7.10;99.90
42099;DHT22;27758;55.900;8.516;2022-10-17T02:20:25;7.10;99.90
42099;DHT22;27758;55.900;8.516;2022-10-17T02:23:12;7.10;99.90
42099;DHT22;27758;55.900;8.516;2022-10-17T02:28:31;7.20;99.90
42099;DHT22;27758;55.900;8.516;2022-10-17T02:31:07;7.30;99.90
42099;DHT22;27758;55.900;8.516;2022-10-17T02:36:18;7.30;99.90
42099;DHT22;27758;55.900;8.516;2022-10-17T02:38:45;7.20;99.90
42099;DHT22;27758;55.900;8.516;2022-10-17T02:41:15;7.20;99.90
42099;DHT22;27758;55.900;8.516;2022-10-17T02:43:43;7.10;99.90
42099;DHT22;27758;55.900;8.516;2022-10-17T02:46:14;7.10;99.90
42099;DHT22;27758;55.900;8.516;2022-10-17T02:49:12;7.10;99.90
42099;DHT22;27758;55.900;8.516;2022-10-17T02:54:32;7.10;99.90
42099;DHT22;27758;55.900;8.516;2022-10-17T02:59:32;7.10;99.90
42099;DHT22;27758;55.900;8.516;2022-10-17T03:02:03;7.10;99.90
42099;DHT22;27758;55.900;8.516;2022-10-17T03:04:28;7.10;99.90
42099;DHT22;27758;55.900;8.516;2022-10-17T03:06:54;7.10;99.90
42099;DHT22;27758;55.900;8.516;2022-10-17T03:09:20;7.20;99.90
42099;DHT22;27758;55.900;8.516;2022-10-17T03:11:46;7.20;99.90
42099;DHT22;27758;55.900;8.516;2022-10-17T03:14:12;7.30;99.90
42099;DHT22;27758;55.900;8.516;2022-10-17T03:16:37;7.30;99.90
42099;DHT22;27758;55.900;8.516;2022-10-17T03:19:03;7.30;99.90
42099;DHT22;27758;55.900;8.516;2022-10-17T03:21:29;7.30;99.90
42099;DHT22;27758;55.900;8.516;2022-10-17T03:23:55;7.30;99.90
42099;DHT22;27758;55.900;8.516;2022-10-17T03:26:21;7.30;99.90
42099;DHT22;27758;55.900;8.516;2022-10-17T03:28:47;7.30;99.90
42099;DHT22;27758;55.900;8.516;2022-10-17T03:31:15;7.40;99.90
42099;DHT22;27758;55.900;8.516;2022-10-17T03:33:41;7.40;99.90
42099;DHT22;27758;55.900;8.516;2022-10-17T03:36:09;7.40;99.90
42099;DHT22;27758;55.900;8.516;2022-10-17T03:38:35;7.50;99.90
42099;DHT22;27758;55.900;8.516;2022-10-17T03:41:01;7.50;99.90
42099;DHT22;27758;55.900;8.516;2022-10-17T03:43:27;7.50;99.90
42099;DHT22;27758;55.900;8.516;2022-10-17T03:45:53;7.50;99.90
42099;DHT22;27758;55.900;8.516;2022-10-17T03:48:19;7.50;99.90
42099;DHT22;27758;55.900;8.516;2022-10-17T03:50:45;7.60;99.90
42099;DHT22;27758;55.900;8.516;2022-10-17T03:53:11;7.60;99.90
42099;DHT22;27758;55.900;8.516;2022-10-17T03:55:37;7.60;99.90
42099;DHT22;27758;55.900;8.516;2022-10-17T03:58:02;7.50;99.90
42099;DHT22;27758;55.900;8.516;2022-10-17T04:00:28;7.50;99.90
42099;DHT22;27758;55.900;8.516;2022-10-17T04:02:54;7.60;99.90
42099;DHT22;27758;55.900;8.516;2022-10-17T04:05:20;7.60;99.90
42099;DHT22;27758;55.900;8.516;2022-10-17T04:07:45;7.60;99.90
42099;DHT22;27758;55.900;8.516;2022-10-17T04:10:11;7.60;99.90
42099;DHT22;27758;55.900;8.516;2022-10-17T04:12:37;7.70;99.90
42099;DHT22;27758;55.900;8.516;2022-10-17T04:15:03;7.80;99.90
42099;DHT22;27758;55.900;8.516;2022-10-17T04:17:30;7.90;99.90
42099;DHT22;27758;55.900;8.516;2022-10-17T04:19:56;8.00;99.90
42099;DHT22;27758;55.900;8.516;2022-10-17T04:22:21;8.10;99.90
42099;DHT22;27758;55.900;8.516;2022-10-17T04:24:47;8.10;99.90
42099;DHT22;27758;55.900;8.516;2022-10-17T04:27:13;8.30;99.90
42099;DHT22;27758;55.900;8.516;2022-10-17T04:29:39;8.20;99.90
42099;DHT22;27758;55.900;8.516;2022-10-17T04:32:05;8.40;99.90
42099;DHT22;27758;55.900;8.516;2022-10-17T04:34:30;8.30;99.90
42099;DHT22;27758;55.900;8.516;2022-10-17T04:36:56;8.40;99.90
42099;DHT22;27758;55.900;8.516;2022-10-17T04:39:22;8.50;99.90
42099;DHT22;27758;55.900;8.516;2022-10-17T04:41:48;8.50;99.90
42099;DHT22;27758;55.900;8.516;2022-10-17T04:44:14;8.60;99.90
42099;DHT22;27758;55.900;8.516;2022-10-17T04:46:39;8.70;99.90
42099;DHT22;27758;55.900;8.516;2022-10-17T04:49:05;8.70;99.90
42099;DHT22;27758;55.900;8.516;2022-10-17T04:51:31;8.80;99.90
42099;DHT22;27758;55.900;8.516;2022-10-17T04:53:57;8.80;99.90
42099;DHT22;27758;55.900;8.516;2022-10-17T04:56:23;8.90;99.90
42099;DHT22;27758;55.900;8.516;2022-10-17T04:58:50;8.90;99.90
42099;DHT22;27758;55.900;8.516;2022-10-17T05:01:18;8.80;99.90
42099;DHT22;27758;55.900;8.516;2022-10-17T05:03:45;8.90;99.90
42099;DHT22;27758;55.900;8.516;2022-10-17T05:06:16;9.00;99.90
42099;DHT22;27758;55.900;8.516;2022-10-17T05:08:43;9.00;99.90
42099;DHT22;27758;55.900;8.516;2022-10-17T05:11:22;9.10;99.90
42099;DHT22;27758;55.900;8.516;2022-10-17T05:13:50;9.10;99.90
42099;DHT22;27758;55.900;8.516;2022-10-17T05:16:16;9.20;99.90
42099;DHT22;27758;55.900;8.516;2022-10-17T05:18:42;9.20;99.90
42099;DHT22;27758;55.900;8.516;2022-10-17T05:21:08;9.30;99.90
42099;DHT22;27758;55.900;8.516;2022-10-17T05:23:34;9.30;99.90
42099;DHT22;27758;55.900;8.516;2022-10-17T05:26:00;9.30;99.90
42099;DHT22;27758;55.900;8.516;2022-10-17T05:28:26;9.40;99.90
42099;DHT22;27758;55.900;8.516;2022-10-17T05:30:51;9.40;99.90
42099;DHT22;27758;55.900;8.516;2022-10-17T05:33:17;9.50;99.90
42099;DHT22;27758;55.900;8.516;2022-10-17T05:35:43;9.50;99.90
42099;DHT22;27758;55.900;8.516;2022-10-17T05:38:09;9.60;99.90
42099;DHT22;27758;55.900;8.516;2022-10-17T05:40:35;9.60;99.90
42099;DHT22;27758;55.900;8.516;2022-10-17T05:43:00;9.70;99.90
42099;DHT22;27758;55.900;8.516;2022-10-17T05:45:26;9.70;99.90
42099;DHT22;27758;55.900;8.516;2022-10-17T05:47:52;9.70;99.90
42099;DHT22;27758;55.900;8.516;2022-10-17T05:50:18;9.80;99.90
42099;DHT22;27758;55.900;8.516;2022-10-17T05:52:46;9.80;99.90
42099;DHT22;27758;55.900;8.516;2022-10-17T05:55:12;9.90;99.90
42099;DHT22;27758;55.900;8.516;2022-10-17T05:57:37;9.90;99.90
42099;DHT22;27758;55.900;8.516;2022-10-17T06:00:04;10.00;99.90
42099;DHT22;27758;55.900;8.516;2022-10-17T06:02:30;10.00;99.90
42099;DHT22;27758;55.900;8.516;2022-10-17T06:04:56;10.00;99.90
42099;DHT22;27758;55.900;8.516;2022-10-17T06:07:22;10.00;99.90
42099;DHT22;27758;55.900;8.516;2022-10-17T06:09:48;10.00;99.90
42099;DHT22;27758;55.900;8.516;2022-10-17T06:12:13;10.10;99.90
42099;DHT22;27758;55.900;8.516;2022-10-17T06:14:39;10.10;99.90
42099;DHT22;27758;55.900;8.516;2022-10-17T06:17:05;10.10;99.90
42099;DHT22;27758;55.900;8.516;2022-10-17T06:19:31;10.10;99.90
42099;DHT22;27758;55.900;8.516;2022-10-17T06:21:57;10.20;99.90
42099;DHT22;27758;55.900;8.516;2022-10-17T06:24:22;10.20;99.90
42099;DHT22;27758;55.900;8.516;2022-10-17T06:26:48;10.20;99.90
42099;DHT22;27758;55.900;8.516;2022-10-17T06:29:14;10.20;99.90
42099;DHT22;27758;55.900;8.516;2022-10-17T06:31:40;10.30;99.90
42099;DHT22;27758;55.900;8.516;2022-10-17T06:34:06;10.30;99.90
42099;DHT22;27758;55.900;8.516;2022-10-17T06:36:31;10.30;99.90
42099;DHT22;27758;55.900;8.516;2022-10-17T06:38:57;10.30;99.90
42099;DHT22;27758;55.900;8.516;2022-10-17T06:41:23;10.40;99.90
42099;DHT22;27758;55.900;8.516;2022-10-17T06:43:49;10.40;99.90
42099;DHT22;27758;55.900;8.516;2022-10-17T06:46:17;10.40;99.90
42099;DHT22;27758;55.900;8.516;2022-10-17T06:48:43;10.50;99.90
42099;DHT22;27758;55.900;8.516;2022-10-17T06:51:10;10.50;99.90
42099;DHT22;27758;55.900;8.516;2022-10-17T06:53:38;10.50;99.90
42099;DHT22;27758;55.900;8.516;2022-10-17T06:56:05;10.60;99.90
42099;DHT22;27758;55.900;8.516;2022-10-17T06:58:36;10.60;99.90
42099;DHT22;27758;55.900;8.516;2022-10-17T07:01:09;10.60;99.90
42099;DHT22;27758;55.900;8.516;2022-10-17T07:03:35;10.70;99.90
42099;DHT22;27758;55.900;8.516;2022-10-17T07:06:01;10.80;99.90
42099;DHT22;27758;55.900;8.516;2022-10-17T07:08:27;10.80;99.90
42099;DHT22;27758;55.900;8.516;2022-10-17T07:10:54;10.90;99.90
42099;DHT22;27758;55.900;8.516;2022-10-17T07:13:20;10.90;99.90
42099;DHT22;27758;55.900;8.516;2022-10-17T07:15:46;11.00;99.90
42099;DHT22;27758;55.900;8.516;2022-10-17T07:18:12;11.00;99.90
42099;DHT22;27758;55.900;8.516;2022-10-17T07:20:38;11.10;99.90
42099;DHT22;27758;55.900;8.516;2022-10-17T07:23:05;11.10;99.90
42099;DHT22;27758;55.900;8.516;2022-10-17T07:25:31;11.20;99.90
42099;DHT22;27758;55.900;8.516;2022-10-17T07:27:57;11.20;99.90
42099;DHT22;27758;55.900;8.516;2022-10-17T07:30:23;11.30;99.90
42099;DHT22;27758;55.900;8.516;2022-10-17T07:32:52;11.30;99.90
42099;DHT22;27758;55.900;8.516;2022-10-17T07:35:18;11.40;99.90
42099;DHT22;27758;55.900;8.516;2022-10-17T07:37:43;11.40;99.90
42099;DHT22;27758;55.900;8.516;2022-10-17T07:40:09;11.40;99.90
42099;DHT22;27758;55.900;8.516;2022-10-17T07:42:36;11.50;99.90
42099;DHT22;27758;55.900;8.516;2022-10-17T07:45:02;11.50;99.90
42099;DHT22;27758;55.900;8.516;2022-10-17T07:47:29;11.60;99.90
42099;DHT22;27758;55.900;8.516;2022-10-17T07:49:56;11.60;99.90
42099;DHT22;27758;55.900;8.516;2022-10-17T07:52:22;11.70;99.90
42099;DHT22;27758;55.900;8.516;2022-10-17T07:54:48;11.80;99.90
42099;DHT22;27758;55.900;8.516;2022-10-17T07:57:14;11.80;99.90
42099;DHT22;27758;55.900;8.516;2022-10-17T07:59:39;11.90;99.90
42099;DHT22;27758;55.900;8.516;2022-10-17T08:02:05;11.90;99.90
42099;DHT22;27758;55.900;8.516;2022-10-17T08:04:33;12.00;99.90
42099;DHT22;27758;55.900;8.516;2022-10-17T08:07:00;12.00;99.90
42099;DHT22;27758;55.900;8.516;2022-10-17T08:09:26;12.00;99.90
42099;DHT22;27758;55.900;8.516;2022-10-17T08:11:52;12.10;99.90
42099;DHT22;27758;55.900;8.516;2022-10-17T08:14:18;12.10;99.90
42099;DHT22;27758;55.900;8.516;2022-10-17T08:16:44;12.20;99.90
42099;DHT22;27758;55.900;8.516;2022-10-17T08:19:10;12.20;99.90
42099;DHT22;27758;55.900;8.516;2022-10-17T08:21:36;12.20;99.90
42099;DHT22;27758;55.900;8.516;2022-10-17T08:24:02;12.30;99.90
42099;DHT22;27758;55.900;8.516;2022-10-17T08:26:28;12.30;99.90
42099;DHT22;27758;55.900;8.516;2022-10-17T08:28:55;12.40;99.90
42099;DHT22;27758;55.900;8.516;2022-10-17T08:31:21;12.40;99.90
42099;DHT22;27758;55.900;8.516;2022-10-17T08:33:48;12.40;99.90
42099;DHT22;27758;55.900;8.516;2022-10-17T08:36:17;12.50;99.90
42099;DHT22;27758;55.900;8.516;2022-10-17T08:38:43;12.50;99.90
42099;DHT22;27758;55.900;8.516;2022-10-17T08:41:36;12.50;99.90
42099;DHT22;27758;55.900;8.516;2022-10-17T08:44:28;12.50;99.90
42099;DHT22;27758;55.900;8.516;2022-10-17T08:47:00;12.50;99.90
42099;DHT22;27758;55.900;8.516;2022-10-17T08:49:48;12.50;99.90
42099;DHT22;27758;55.900;8.516;2022-10-17T08:52:29;12.50;99.90
42099;DHT22;27758;55.900;8.516;2022-10-17T08:54:56;12.40;99.90
42099;DHT22;27758;55.900;8.516;2022-10-17T08:57:22;12.50;99.90
42099;DHT22;27758;55.900;8.516;2022-10-17T08:59:52;12.50;99.90
42099;DHT22;27758;55.900;8.516;2022-10-17T09:15:39;12.70;99.90
42099;DHT22;27758;55.900;8.516;2022-10-17T09:23:56;12.80;99.90
42099;DHT22;27758;55.900;8.516;2022-10-17T09:26:24;12.80;99.90
42099;DHT22;27758;55.900;8.516;2022-10-17T09:28:53;12.90;99.90
42099;DHT22;27758;55.900;8.516;2022-10-17T09:31:29;12.90;99.90
42099;DHT22;27758;55.900;8.516;2022-10-17T09:34:00;13.00;99.90
42099;DHT22;27758;55.900;8.516;2022-10-17T09:36:27;13.00;99.90
42099;DHT22;27758;55.900;8.516;2022-10-17T09:38:57;13.20;99.90
42099;DHT22;27758;55.900;8.516;2022-10-17T09:41:36;13.20;99.90
42099;DHT22;27758;55.900;8.516;2022-10-17T09:44:24;13.30;99.90
42099;DHT22;27758;55.900;8.516;2022-10-17T09:49:42;13.30;99.90
42099;DHT22;27758;55.900;8.516;2022-10-17T09:52:15;13.30;99.90
42099;DHT22;27758;55.900;8.516;2022-10-17T09:54:45;13.30;99.90
42099;DHT22;27758;55.900;8.516;2022-10-17T09:57:13;13.30;99.90
42099;DHT22;27758;55.900;8.516;2022-10-17T09:59:43;13.40;99.90
42099;DHT22;27758;55.900;8.516;2022-10-17T10:05:03;13.50;99.90
42099;DHT22;27758;55.900;8.516;2022-10-17T10:07:35;13.60;99.90
42099;DHT22;27758;55.900;8.516;2022-10-17T10:10:03;13.70;99.90
42099;DHT22;27758;55.900;8.516;2022-10-17T10:12:31;13.80;99.90
42099;DHT22;27758;55.900;8.516;2022-10-17T10:14:58;13.90;99.90
42099;DHT22;27758;55.900;8.516;2022-10-17T10:17:36;14.00;99.90
42099;DHT22;27758;55.900;8.516;2022-10-17T10:20:24;14.20;99.90
42099;DHT22;27758;55.900;8.516;2022-10-17T10:23:11;14.40;99.90
42099;DHT22;27758;55.900;8.516;2022-10-17T10:25:38;14.50;99.90
42099;DHT22;27758;55.900;8.516;2022-10-17T10:28:15;14.50;99.90
42099;DHT22;27758;55.900;8.516;2022-10-17T10:30:46;14.50;99.90
42099;DHT22;27758;55.900;8.516;2022-10-17T10:33:13;14.50;99.90
42099;DHT22;27758;55.900;8.516;2022-10-17T10:35:38;14.60;99.90
42099;DHT22;27758;55.900;8.516;2022-10-17T10:38:10;14.60;99.90
42099;DHT22;27758;55.900;8.516;2022-10-17T10:40:51;14.70;99.90
42099;DHT22;27758;55.900;8.516;2022-10-17T10:45:53;14.80;99.90
42099;DHT22;27758;55.900;8.516;2022-10-17T10:48:23;14.90;99.90
42099;DHT22;27758;55.900;8.516;2022-10-17T10:51:12;14.90;99.90
42099;DHT22;27758;55.900;8.516;2022-10-17T10:54:19;14.90;99.90
42099;DHT22;27758;55.900;8.516;2022-10-17T10:56:48;15.00;99.90
42099;DHT22;27758;55.900;8.516;2022-10-17T11:02:37;15.00;99.90
42099;DHT22;27758;55.900;8.516;2022-10-17T11:05:24;15.00;99.90
42099;DHT22;27758;55.900;8.516;2022-10-17T11:13:40;15.00;99.90
42099;DHT22;27758;55.900;8.516;2022-10-17T11:16:31;15.00;99.90
42099;DHT22;27758;55.900;8.516;2022-10-17T11:19:06;15.00;99.90
42099;DHT22;27758;55.900;8.516;2022-10-17T11:21:47;15.00;99.90
42099;DHT22;27758;55.900;8.516;2022-10-17T11:24:28;15.00;99.90
42099;DHT22;27758;55.900;8.516;2022-10-17T11:26:59;15.00;99.90
42099;DHT22;27758;55.900;8.516;2022-10-17T11:29:33;15.00;99.90
42099;DHT22;27758;55.900;8.516;2022-10-17T11:32:04;15.00;99.90
42099;DHT22;27758;55.900;8.516;2022-10-17T11:34:36;14.90;99.90
42099;DHT22;27758;55.900;8.516;2022-10-17T11:37:20;15.00;99.90
42099;DHT22;27758;55.900;8.516;2022-10-17T11:40:01;15.00;99.90
42099;DHT22;27758;55.900;8.516;2022-10-17T11:42:50;15.00;99.90
42099;DHT22;27758;55.900;8.516;2022-10-17T11:45:19;15.00;99.90
42099;DHT22;27758;55.900;8.516;2022-10-17T11:47:50;15.10;99.90
42099;DHT22;27758;55.900;8.516;2022-10-17T11:50:34;15.10;99.90
42099;DHT22;27758;55.900;8.516;2022-10-17T11:53:02;15.10;99.90
42099;DHT22;27758;55.900;8.516;2022-10-17T11:55:31;15.10;99.90
42099;DHT22;27758;55.900;8.516;2022-10-17T12:03:59;15.10;99.90
42099;DHT22;27758;55.900;8.516;2022-10-17T12:06:56;15.10;99.90
42099;DHT22;27758;55.900;8.516;2022-10-17T12:11:59;15.10;99.90
42099;DHT22;27758;55.900;8.516;2022-10-17T12:17:01;15.00;99.90
42099;DHT22;27758;55.900;8.516;2022-10-17T12:19:34;15.10;99.90
42099;DHT22;27758;55.900;8.516;2022-10-17T12:24:44;15.20;99.90
42099;DHT22;27758;55.900;8.516;2022-10-17T12:27:31;15.20;99.90
42099;DHT22;27758;55.900;8.516;2022-10-17T12:32:59;15.30;99.90
42099;DHT22;27758;55.900;8.516;2022-10-17T12:35:28;15.30;99.90
42099;DHT22;27758;55.900;8.516;2022-10-17T12:43:22;15.50;99.90
42099;DHT22;27758;55.900;8.516;2022-10-17T12:46:01;15.60;99.90
42099;DHT22;27758;55.900;8.516;2022-10-17T12:53:28;15.80;99.90
42099;DHT22;27758;55.900;8.516;2022-10-17T12:56:00;15.80;99.90
42099;DHT22;27758;55.900;8.516;2022-10-17T12:58:26;15.90;99.90
42099;DHT22;27758;55.900;8.516;2022-10-17T13:00:55;15.90;99.90
42099;DHT22;27758;55.900;8.516;2022-10-17T13:03:27;16.00;99.90
42099;DHT22;27758;55.900;8.516;2022-10-17T13:05:55;16.00;99.90
42099;DHT22;27758;55.900;8.516;2022-10-17T13:08:33;16.10;99.90
42099;DHT22;27758;55.900;8.516;2022-10-17T13:11:00;16.10;99.90
42099;DHT22;27758;55.900;8.516;2022-10-17T13:13:47;16.10;99.90
42099;DHT22;27758;55.900;8.516;2022-10-17T13:19:17;16.10;99.90
42099;DHT22;27758;55.900;8.516;2022-10-17T13:21:54;16.20;99.90
42099;DHT22;27758;55.900;8.516;2022-10-17T13:24:37;16.20;99.90
42099;DHT22;27758;55.900;8.516;2022-10-17T13:27:05;16.20;99.90
42099;DHT22;27758;55.900;8.516;2022-10-17T13:29:32;16.20;99.90
42099;DHT22;27758;55.900;8.516;2022-10-17T13:31:59;16.20;99.90
42099;DHT22;27758;55.900;8.516;2022-10-17T13:34:27;16.20;99.90
42099;DHT22;27758;55.900;8.516;2022-10-17T13:37:05;16.20;99.90
42099;DHT22;27758;55.900;8.516;2022-10-17T13:39:38;16.20;99.90
42099;DHT22;27758;55.900;8.516;2022-10-17T13:42:04;16.20;99.90
42099;DHT22;27758;55.900;8.516;2022-10-17T13:44:34;16.20;99.90
42099;DHT22;27758;55.900;8.516;2022-10-17T13:47:00;16.10;99.90
42099;DHT22;27758;55.900;8.516;2022-10-17T13:49:39;16.10;99.90
42099;DHT22;27758;55.900;8.516;2022-10-17T13:54:49;16.00;99.90
42099;DHT22;27758;55.900;8.516;2022-10-17T13:59:54;15.90;99.90
42099;DHT22;27758;55.900;8.516;2022-10-17T14:02:29;15.90;99.90
42099;DHT22;27758;55.900;8.516;2022-10-17T14:07:39;15.80;99.90
42099;DHT22;27758;55.900;8.516;2022-10-17T14:10:24;15.90;99.90
42099;DHT22;27758;55.900;8.516;2022-10-17T14:12:51;15.90;99.90
42099;DHT22;27758;55.900;8.516;2022-10-17T14:15:17;15.90;99.90
42099;DHT22;27758;55.900;8.516;2022-10-17T14:17:45;15.90;99.90
42099;DHT22;27758;55.900;8.516;2022-10-17T14:20:18;15.90;99.90
42099;DHT22;27758;55.900;8.516;2022-10-17T14:22:46;15.90;99.90
42099;DHT22;27758;55.900;8.516;2022-10-17T14:25:32;15.90;99.90
42099;DHT22;27758;55.900;8.516;2022-10-17T14:28:06;15.90;99.90
42099;DHT22;27758;55.900;8.516;2022-10-17T14:30:46;16.00;99.90
42099;DHT22;27758;55.900;8.516;2022-10-17T14:33:21;16.00;99.90
42099;DHT22;27758;55.900;8.516;2022-10-17T14:35:51;16.00;99.90
42099;DHT22;27758;55.900;8.516;2022-10-17T14:38:18;16.00;99.90
42099;DHT22;27758;55.900;8.516;2022-10-17T14:40:55;16.00;99.90
42099;DHT22;27758;55.900;8.516;2022-10-17T14:43:25;16.00;99.90
42099;DHT22;27758;55.900;8.516;2022-10-17T14:45:51;15.90;99.90
42099;DHT22;27758;55.900;8.516;2022-10-17T14:48:20;16.00;99.90
42099;DHT22;27758;55.900;8.516;2022-10-17T14:51:09;15.90;99.90
42099;DHT22;27758;55.900;8.516;2022-10-17T14:53:36;15.90;99.90
42099;DHT22;27758;55.900;8.516;2022-10-17T14:56:04;15.90;99.90
42099;DHT22;27758;55.900;8.516;2022-10-17T14:58:44;15.90;99.90
42099;DHT22;27758;55.900;8.516;2022-10-17T15:01:10;15.90;99.90
42099;DHT22;27758;55.900;8.516;2022-10-17T15:03:36;15.80;99.90
42099;DHT22;27758;55.900;8.516;2022-10-17T15:06:18;15.80;99.90
42099;DHT22;27758;55.900;8.516;2022-10-17T15:08:44;15.80;99.90
42099;DHT22;27758;55.900;8.516;2022-10-17T15:11:11;15.80;99.90
42099;DHT22;27758;55.900;8.516;2022-10-17T15:13:36;15.80;99.90
42099;DHT22;27758;55.900;8.516;2022-10-17T15:16:25;15.70;99.90
42099;DHT22;27758;55.900;8.516;2022-10-17T15:18:52;15.80;99.90
42099;DHT22;27758;55.900;8.516;2022-10-17T15:21:21;15.80;99.90
42099;DHT22;27758;55.900;8.516;2022-10-17T15:23:47;15.80;99.90
42099;DHT22;27758;55.900;8.516;2022-10-17T15:26:21;15.80;99.90
42099;DHT22;27758;55.900;8.516;2022-10-17T15:28:48;15.80;99.90
42099;DHT22;27758;55.900;8.516;2022-10-17T15:31:19;15.70;99.90
42099;DHT22;27758;55.900;8.516;2022-10-17T15:33:46;15.70;99.90
42099;DHT22;27758;55.900;8.516;2022-10-17T15:36:28;15.80;99.90
42099;DHT22;27758;55.900;8.516;2022-10-17T15:38:58;15.80;99.90
42099;DHT22;27758;55.900;8.516;2022-10-17T15:41:25;15.70;99.90
42099;DHT22;27758;55.900;8.516;2022-10-17T15:43:51;15.70;99.90
42099;DHT22;27758;55.900;8.516;2022-10-17T15:46:32;15.70;99.90
42099;DHT22;27758;55.900;8.516;2022-10-17T15:49:05;15.70;99.90
42099;DHT22;27758;55.900;8.516;2022-10-17T15:51:32;15.70;99.90
42099;DHT22;27758;55.900;8.516;2022-10-17T15:53:58;15.70;99.90
42099;DHT22;27758;55.900;8.516;2022-10-17T15:56:31;15.70;99.90
42099;DHT22;27758;55.900;8.516;2022-10-17T15:59:04;15.70;99.90
42099;DHT22;27758;55.900;8.516;2022-10-17T16:01:31;15.70;99.90
42099;DHT22;27758;55.900;8.516;2022-10-17T16:03:57;15.60;99.90
42099;DHT22;27758;55.900;8.516;2022-10-17T16:06:24;15.60;99.90
42099;DHT22;27758;55.900;8.516;2022-10-17T16:08:50;15.60;99.90
42099;DHT22;27758;55.900;8.516;2022-10-17T16:11:36;15.60;99.90
42099;DHT22;27758;55.900;8.516;2022-10-17T16:14:05;15.60;99.90
42099;DHT22;27758;55.900;8.516;2022-10-17T16:16:31;15.60;99.90
42099;DHT22;27758;55.900;8.516;2022-10-17T16:18:57;15.50;99.90
42099;DHT22;27758;55.900;8.516;2022-10-17T16:21:26;15.50;99.90
42099;DHT22;27758;55.900;8.516;2022-10-17T16:23:52;15.50;99.90
42099;DHT22;27758;55.900;8.516;2022-10-17T16:26:18;15.50;99.90
42099;DHT22;27758;55.900;8.516;2022-10-17T16:28:44;15.50;99.90
42099;DHT22;27758;55.900;8.516;2022-10-17T16:31:22;15.40;99.90
42099;DHT22;27758;55.900;8.516;2022-10-17T16:33:50;15.40;99.90
42099;DHT22;27758;55.900;8.516;2022-10-17T16:36:16;15.40;99.90
42099;DHT22;27758;55.900;8.516;2022-10-17T16:38:42;15.40;99.90
42099;DHT22;27758;55.900;8.516;2022-10-17T16:41:28;15.30;99.90
42099;DHT22;27758;55.900;8.516;2022-10-17T16:43:57;15.40;99.90
42099;DHT22;27758;55.900;8.516;2022-10-17T16:46:24;15.40;99.90
42099;DHT22;27758;55.900;8.516;2022-10-17T16:48:50;15.30;99.90
42099;DHT22;27758;55.900;8.516;2022-10-17T16:51:17;15.30;99.90
42099;DHT22;27758;55.900;8.516;2022-10-17T16:53:45;15.30;99.90
42099;DHT22;27758;55.900;8.516;2022-10-17T16:56:13;15.30;99.90
42099;DHT22;27758;55.900;8.516;2022-10-17T16:58:40;15.30;99.90
42099;DHT22;27758;55.900;8.516;2022-10-17T17:01:09;15.30;99.90
42099;DHT22;27758;55.900;8.516;2022-10-17T17:03:39;15.30;99.90
42099;DHT22;27758;55.900;8.516;2022-10-17T17:06:06;15.30;99.90
42099;DHT22;27758;55.900;8.516;2022-10-17T17:08:33;15.30;99.90
42099;DHT22;27758;55.900;8.516;2022-10-17T17:10:59;15.30;99.90
42099;DHT22;27758;55.900;8.516;2022-10-17T17:13:26;15.30;99.90
42099;DHT22;27758;55.900;8.516;2022-10-17T17:16:07;15.30;99.90
42099;DHT22;27758;55.900;8.516;2022-10-17T17:18:34;15.30;99.90
42099;DHT22;27758;55.900;8.516;2022-10-17T17:21:02;15.20;99.90
42099;DHT22;27758;55.900;8.516;2022-10-17T17:23:29;15.20;99.90
42099;DHT22;27758;55.900;8.516;2022-10-17T17:26:00;15.20;99.90
42099;DHT22;27758;55.900;8.516;2022-10-17T17:28:27;15.20;99.90
42099;DHT22;27758;55.900;8.516;2022-10-17T17:30:53;15.20;99.90
42099;DHT22;27758;55.900;8.516;2022-10-17T17:33:21;15.10;99.90
42099;DHT22;27758;55.900;8.516;2022-10-17T17:35:52;15.10;99.90
42099;DHT22;27758;55.900;8.516;2022-10-17T17:38:18;15.10;99.90